sensor_id;sensor_type;location;lat;lon;timestamp;temperature;humidity
9219;DHT22;4644;48.858;9.184;2023-02-28T00:00:14;-1.60;95.10
9219;DHT22;4644;48.858;9.184;2023-02-28T00:02:42;-1.70;95.30
9219;DHT22;4644;48.858;9.184;2023-02-28T00:05:13;-1.70;95.40
9219;DHT22;4644;48.858;9.184;2023-02-28T00:07:41;-1.70;95.80
9219;DHT22;4644;48.858;9.184;2023-02-28T00:10:11;-1.70;96.00
9219;DHT22;4644;48.858;9.184;2023-02-28T00:12:39;-1.70;96.10
9219;DHT22;4644;48.858;9.184;2023-02-28T00:15:07;-1.70;96.00
9219;DHT22;4644;48.858;9.184;2023-02-28T00:17:34;-1.70;96.40
9219;DHT22;4644;48.858;9.184;2023-02-28T00:20:02;-1.70;96.30
9219;DHT22;4644;48.858;9.184;2023-02-28T00:22:40;-1.70;96.40
9219;DHT22;4644;48.858;9.184;2023-02-28T00:25:09;-1.70;96.70
9219;DHT22;4644;48.858;9.184;2023-02-28T00:27:36;-1.70;96.70
9219;DHT22;4644;48.858;9.184;2023-02-28T00:30:08;-1.70;96.70
9219;DHT22;4644;48.858;9.184;2023-02-28T00:32:36;-1.70;96.80
9219;DHT22;4644;48.858;9.184;2023-02-28T00:35:04;-1.80;97.10
9219;DHT22;4644;48.858;9.184;2023-02-28T00:37:31;-1.80;97.10
9219;DHT22;4644;48.858;9.184;2023-02-28T00:40:00;-1.80;97.40
9219;DHT22;4644;48.858;9.184;2023-02-28T00:42:30;-1.80;97.60
9219;DHT22;4644;48.858;9.184;2023-02-28T00:44:57;-1.80;97.60
9219;DHT22;4644;48.858;9.184;2023-02-28T00:47:24;-1.80;97.80
9219;DHT22;4644;48.858;9.184;2023-02-28T00:49:51;-1.90;97.90
9219;DHT22;4644;48.858;9.184;2023-02-28T00:52:18;-1.90;98.30
9219;DHT22;4644;48.858;9.184;2023-02-28T00:54:45;-1.90;98.20
9219;DHT22;4644;48.858;9.184;2023-02-28T00:57:13;-1.80;98.40
9219;DHT22;4644;48.858;9.184;2023-02-28T00:59:40;-1.80;98.40
9219;DHT22;4644;48.858;9.184;2023-02-28T01:02:07;-1.90;98.90
9219;DHT22;4644;48.858;9.184;2023-02-28T01:04:34;-1.90;98.90
9219;DHT22;4644;48.858;9.184;2023-02-28T01:07:01;-1.90;98.90
9219;DHT22;4644;48.858;9.184;2023-02-28T01:09:29;-1.90;99.20
9219;DHT22;4644;48.858;9.184;2023-02-28T01:11:56;-1.90;99.40
9219;DHT22;4644;48.858;9.184;2023-02-28T01:14:25;-1.90;99.40
9219;DHT22;4644;48.858;9.184;2023-02-28T01:16:52;-1.90;99.70
9219;DHT22;4644;48.858;9.184;2023-02-28T01:19:19;-1.90;99.90
9219;DHT22;4644;48.858;9.184;2023-02-28T01:21:46;-1.90;99.90
9219;DHT22;4644;48.858;9.184;2023-02-28T01:24:13;-1.90;99.90
9219;DHT22;4644;48.858;9.184;2023-02-28T01:26:40;-2.00;99.90
9219;DHT22;4644;48.858;9.184;2023-02-28T01:29:07;-2.00;99.90
9219;DHT22;4644;48.858;9.184;2023-02-28T01:31:36;-1.90;99.90
9219;DHT22;4644;48.858;9.184;2023-02-28T01:34:03;-2.00;99.90
9219;DHT22;4644;48.858;9.184;2023-02-28T01:36:30;-2.00;99.90
9219;DHT22;4644;48.858;9.184;2023-02-28T01:38:57;-2.00;99.90
9219;DHT22;4644;48.858;9.184;2023-02-28T01:41:26;-2.00;99.90
9219;DHT22;4644;48.858;9.184;2023-02-28T01:43:59;-2.00;99.90
9219;DHT22;4644;48.858;9.184;2023-02-28T01:46:28;-2.00;99.90
9219;DHT22;4644;48.858;9.184;2023-02-28T01:49:02;-2.10;99.90
9219;DHT22;4644;48.858;9.184;2023-02-28T01:51:35;-2.10;99.90
9219;DHT22;4644;48.858;9.184;2023-02-28T01:54:07;-2.10;99.90
9219;DHT22;4644;48.858;9.184;2023-02-28T01:56:41;-2.10;99.90
9219;DHT22;4644;48.858;9.184;2023-02-28T01:59:09;-2.10;99.90
9219;DHT22;4644;48.858;9.184;2023-02-28T02:01:38;-2.10;99.90
9219;DHT22;4644;48.858;9.184;2023-02-28T02:04:06;-2.10;99.90
9219;DHT22;4644;48.858;9.184;2023-02-28T02:06:37;-2.10;99.90
9219;DHT22;4644;48.858;9.184;2023-02-28T02:09:04;-2.10;99.90
9219;DHT22;4644;48.858;9.184;2023-02-28T02:11:31;-2.10;99.90
9219;DHT22;4644;48.858;9.184;2023-02-28T02:14:17;-2.10;99.90
9219;DHT22;4644;48.858;9.184;2023-02-28T02:17:04;-2.10;99.90
9219;DHT22;4644;48.858;9.184;2023-02-28T02:19:54;-2.10;99.90
9219;DHT22;4644;48.858;9.184;2023-02-28T02:22:50;-2.10;99.90
9219;DHT22;4644;48.858;9.184;2023-02-28T02:25:28;-2.10;99.90
9219;DHT22;4644;48.858;9.184;2023-02-28T02:28:41;-2.10;99.90
9219;DHT22;4644;48.858;9.184;2023-02-28T02:34:42;-2.10;99.90
9219;DHT22;4644;48.858;9.184;2023-02-28T02:37:16;-2.10;99.90
9219;DHT22;4644;48.858;9.184;2023-02-28T02:39:50;-2.10;99.90
9219;DHT22;4644;48.858;9.184;2023-02-28T02:42:24;-2.10;99.90
9219;DHT22;4644;48.858;9.184;2023-02-28T02:44:58;-2.00;99.90
9219;DHT22;4644;48.858;9.184;2023-02-28T02:47:29;-2.00;99.90
9219;DHT22;4644;48.858;9.184;2023-02-28T02:50:02;-2.00;99.90
9219;DHT22;4644;48.858;9.184;2023-02-28T02:52:35;-2.00;99.90
9219;DHT22;4644;48.858;9.184;2023-02-28T02:55:04;-2.00;99.90
9219;DHT22;4644;48.858;9.184;2023-02-28T02:57:35;-2.00;99.90
9219;DHT22;4644;48.858;9.184;2023-02-28T03:00:04;-2.00;99.90
9219;DHT22;4644;48.858;9.184;2023-02-28T03:02:34;-1.90;99.90
9219;DHT22;4644;48.858;9.184;2023-02-28T03:05:08;-1.90;99.90
9219;DHT22;4644;48.858;9.184;2023-02-28T03:07:39;-1.90;99.90
9219;DHT22;4644;48.858;9.184;2023-02-28T03:10:32;-1.90;99.90
9219;DHT22;4644;48.858;9.184;2023-02-28T03:13:12;-1.90;99.90
9219;DHT22;4644;48.858;9.184;2023-02-28T03:15:53;-1.80;99.90
9219;DHT22;4644;48.858;9.184;2023-02-28T03:18:32;-1.80;99.90
9219;DHT22;4644;48.858;9.184;2023-02-28T03:21:08;-1.80;99.90
9219;DHT22;4644;48.858;9.184;2023-02-28T03:23:45;-1.80;99.90
9219;DHT22;4644;48.858;9.184;2023-02-28T03:26:19;-1.70;99.90
9219;DHT22;4644;48.858;9.184;2023-02-28T03:28:54;-1.80;99.90
9219;DHT22;4644;48.858;9.184;2023-02-28T03:31:26;-1.80;99.90
9219;DHT22;4644;48.858;9.184;2023-02-28T03:34:00;-1.70;99.90
9219;DHT22;4644;48.858;9.184;2023-02-28T03:36:30;-1.80;99.90
9219;DHT22;4644;48.858;9.184;2023-02-28T03:39:04;-1.70;99.90
9219;DHT22;4644;48.858;9.184;2023-02-28T03:41:36;-1.70;99.90
9219;DHT22;4644;48.858;9.184;2023-02-28T03:44:07;-1.70;99.90
9219;DHT22;4644;48.858;9.184;2023-02-28T03:46:45;-1.70;99.90
9219;DHT22;4644;48.858;9.184;2023-02-28T03:49:17;-1.60;99.90
9219;DHT22;4644;48.858;9.184;2023-02-28T03:51:47;-1.70;99.90
9219;DHT22;4644;48.858;9.184;2023-02-28T03:54:18;-1.60;99.90
9219;DHT22;4644;48.858;9.184;2023-02-28T03:56:49;-1.70;99.90
9219;DHT22;4644;48.858;9.184;2023-02-28T03:59:22;-1.60;99.90
9219;DHT22;4644;48.858;9.184;2023-02-28T04:01:51;-1.60;99.90
9219;DHT22;4644;48.858;9.184;2023-02-28T04:04:18;-1.60;99.90
9219;DHT22;4644;48.858;9.184;2023-02-28T04:06:49;-1.60;99.90
9219;DHT22;4644;48.858;9.184;2023-02-28T04:09:17;-1.60;99.90
9219;DHT22;4644;48.858;9.184;2023-02-28T04:11:47;-1.60;99.90
9219;DHT22;4644;48.858;9.184;2023-02-28T04:14:17;-1.60;99.90
9219;DHT22;4644;48.858;9.184;2023-02-28T04:16:44;-1.50;99.90
9219;DHT22;4644;48.858;9.184;2023-02-28T04:19:12;-1.60;99.90
9219;DHT22;4644;48.858;9.184;2023-02-28T04:21:42;-1.60;99.90
9219;DHT22;4644;48.858;9.184;2023-02-28T04:24:12;-1.50;99.90
9219;DHT22;4644;48.858;9.184;2023-02-28T04:26:42;-1.50;99.90
9219;DHT22;4644;48.858;9.184;2023-02-28T04:29:10;-1.50;99.90
9219;DHT22;4644;48.858;9.184;2023-02-28T04:31:38;-1.50;99.90
9219;DHT22;4644;48.858;9.184;2023-02-28T04:34:05;-1.50;99.90
9219;DHT22;4644;48.858;9.184;2023-02-28T04:36:32;-1.50;99.90
9219;DHT22;4644;48.858;9.184;2023-02-28T04:38:59;-1.50;99.90
9219;DHT22;4644;48.858;9.184;2023-02-28T04:41:27;-1.50;99.90
9219;DHT22;4644;48.858;9.184;2023-02-28T04:43:55;-1.50;99.90
9219;DHT22;4644;48.858;9.184;2023-02-28T04:46:23;-1.40;99.90
9219;DHT22;4644;48.858;9.184;2023-02-28T04:48:50;-1.40;99.90
9219;DHT22;4644;48.858;9.184;2023-02-28T04:51:18;-1.50;99.90
9219;DHT22;4644;48.858;9.184;2023-02-28T04:53:46;-1.40;99.90
9219;DHT22;4644;48.858;9.184;2023-02-28T04:56:15;-1.50;99.90
9219;DHT22;4644;48.858;9.184;2023-02-28T04:58:44;-1.50;99.90
9219;DHT22;4644;48.858;9.184;2023-02-28T05:01:20;-1.50;99.90
9219;DHT22;4644;48.858;9.184;2023-02-28T05:03:48;-1.50;99.90
9219;DHT22;4644;48.858;9.184;2023-02-28T05:06:16;-1.40;99.90
9219;DHT22;4644;48.858;9.184;2023-02-28T05:08:44;-1.40;99.90
9219;DHT22;4644;48.858;9.184;2023-02-28T05:11:15;-1.40;99.90
9219;DHT22;4644;48.858;9.184;2023-02-28T05:13:45;-1.40;99.90
9219;DHT22;4644;48.858;9.184;2023-02-28T05:16:12;-1.40;99.90
9219;DHT22;4644;48.858;9.184;2023-02-28T05:18:39;-1.40;99.90
9219;DHT22;4644;48.858;9.184;2023-02-28T05:21:06;-1.40;99.90
9219;DHT22;4644;48.858;9.184;2023-02-28T05:23:43;-1.40;99.90
9219;DHT22;4644;48.858;9.184;2023-02-28T05:26:10;-1.40;99.90
9219;DHT22;4644;48.858;9.184;2023-02-28T05:28:37;-1.40;99.90
9219;DHT22;4644;48.858;9.184;2023-02-28T05:31:06;-1.30;99.90
9219;DHT22;4644;48.858;9.184;2023-02-28T05:33:33;-1.30;99.90
9219;DHT22;4644;48.858;9.184;2023-02-28T05:36:00;-1.30;99.90
9219;DHT22;4644;48.858;9.184;2023-02-28T05:38:27;-1.30;99.90
9219;DHT22;4644;48.858;9.184;2023-02-28T05:40:53;-1.30;99.90
9219;DHT22;4644;48.858;9.184;2023-02-28T05:43:21;-1.30;99.90
9219;DHT22;4644;48.858;9.184;2023-02-28T05:45:49;-1.30;99.90
9219;DHT22;4644;48.858;9.184;2023-02-28T05:48:17;-1.30;99.90
9219;DHT22;4644;48.858;9.184;2023-02-28T05:50:44;-1.30;99.90
9219;DHT22;4644;48.858;9.184;2023-02-28T05:53:12;-1.30;99.90
9219;DHT22;4644;48.858;9.184;2023-02-28T05:55:39;-1.30;99.90
9219;DHT22;4644;48.858;9.184;2023-02-28T05:58:06;-1.20;99.90
9219;DHT22;4644;48.858;9.184;2023-02-28T06:00:33;-1.20;99.90
9219;DHT22;4644;48.858;9.184;2023-02-28T06:03:00;-1.20;99.90
9219;DHT22;4644;48.858;9.184;2023-02-28T06:05:29;-1.30;99.90
9219;DHT22;4644;48.858;9.184;2023-02-28T06:07:56;-1.30;99.90
9219;DHT22;4644;48.858;9.184;2023-02-28T06:10:23;-1.30;99.90
9219;DHT22;4644;48.858;9.184;2023-02-28T06:12:50;-1.30;99.90
9219;DHT22;4644;48.858;9.184;2023-02-28T06:15:17;-1.30;99.90
9219;DHT22;4644;48.858;9.184;2023-02-28T06:17:44;-1.30;99.90
9219;DHT22;4644;48.858;9.184;2023-02-28T06:20:12;-1.20;99.90
9219;DHT22;4644;48.858;9.184;2023-02-28T06:22:40;-1.20;99.90
9219;DHT22;4644;48.858;9.184;2023-02-28T06:25:09;-1.20;99.90
9219;DHT22;4644;48.858;9.184;2023-02-28T06:27:37;-1.20;99.90
9219;DHT22;4644;48.858;9.184;2023-02-28T06:30:04;-1.20;99.90
9219;DHT22;4644;48.858;9.184;2023-02-28T06:32:32;-1.20;99.90
9219;DHT22;4644;48.858;9.184;2023-02-28T06:34:59;-1.20;99.90
9219;DHT22;4644;48.858;9.184;2023-02-28T06:37:26;-1.20;99.90
9219;DHT22;4644;48.858;9.184;2023-02-28T06:39:55;-1.20;99.90
9219;DHT22;4644;48.858;9.184;2023-02-28T06:42:22;-1.10;99.90
9219;DHT22;4644;48.858;9.184;2023-02-28T06:44:50;-1.10;99.90
9219;DHT22;4644;48.858;9.184;2023-02-28T06:47:17;-1.10;99.90
9219;DHT22;4644;48.858;9.184;2023-02-28T06:49:47;-1.10;99.90
9219;DHT22;4644;48.858;9.184;2023-02-28T06:52:15;-1.00;99.90
9219;DHT22;4644;48.858;9.184;2023-02-28T06:54:42;-1.00;99.90
9219;DHT22;4644;48.858;9.184;2023-02-28T06:57:11;-1.00;99.90
9219;DHT22;4644;48.858;9.184;2023-02-28T06:59:37;-1.00;99.90
9219;DHT22;4644;48.858;9.184;2023-02-28T07:02:05;-0.90;99.90
9219;DHT22;4644;48.858;9.184;2023-02-28T07:04:33;-0.90;99.90
9219;DHT22;4644;48.858;9.184;2023-02-28T07:07:00;-1.00;99.90
9219;DHT22;4644;48.858;9.184;2023-02-28T07:09:29;-0.90;99.90
9219;DHT22;4644;48.858;9.184;2023-02-28T07:11:56;-0.90;99.90
9219;DHT22;4644;48.858;9.184;2023-02-28T07:14:24;-0.90;99.90
9219;DHT22;4644;48.858;9.184;2023-02-28T07:16:51;-0.90;99.90
9219;DHT22;4644;48.858;9.184;2023-02-28T07:19:18;-0.90;99.90
9219;DHT22;4644;48.858;9.184;2023-02-28T07:21:46;-0.90;99.90
9219;DHT22;4644;48.858;9.184;2023-02-28T07:24:13;-0.90;99.90
9219;DHT22;4644;48.858;9.184;2023-02-28T07:26:41;-0.90;99.90
9219;DHT22;4644;48.858;9.184;2023-02-28T07:29:08;-0.90;99.90
9219;DHT22;4644;48.858;9.184;2023-02-28T07:31:37;-0.80;99.90
9219;DHT22;4644;48.858;9.184;2023-02-28T07:34:04;-0.80;99.90
9219;DHT22;4644;48.858;9.184;2023-02-28T07:36:30;-0.80;99.90
9219;DHT22;4644;48.858;9.184;2023-02-28T07:38:58;-0.80;99.90
9219;DHT22;4644;48.858;9.184;2023-02-28T07:41:25;-0.80;99.90
9219;DHT22;4644;48.858;9.184;2023-02-28T07:43:53;-0.80;99.90
9219;DHT22;4644;48.858;9.184;2023-02-28T07:46:21;-0.80;99.90
9219;DHT22;4644;48.858;9.184;2023-02-28T07:48:49;-0.80;99.90
9219;DHT22;4644;48.858;9.184;2023-02-28T07:51:16;-0.70;99.90
9219;DHT22;4644;48.858;9.184;2023-02-28T07:53:44;-0.80;99.90
9219;DHT22;4644;48.858;9.184;2023-02-28T07:56:11;-0.80;99.90
9219;DHT22;4644;48.858;9.184;2023-02-28T07:58:37;-0.80;99.90
9219;DHT22;4644;48.858;9.184;2023-02-28T08:01:06;-0.70;99.90
9219;DHT22;4644;48.858;9.184;2023-02-28T08:03:33;-0.70;99.90
9219;DHT22;4644;48.858;9.184;2023-02-28T08:06:02;-0.60;99.90
9219;DHT22;4644;48.858;9.184;2023-02-28T08:08:29;-0.60;99.90
9219;DHT22;4644;48.858;9.184;2023-02-28T08:10:58;-0.60;99.90
9219;DHT22;4644;48.858;9.184;2023-02-28T08:13:26;-0.60;99.90
9219;DHT22;4644;48.858;9.184;2023-02-28T08:15:54;-0.60;99.90
9219;DHT22;4644;48.858;9.184;2023-02-28T08:18:22;-0.50;99.90
9219;DHT22;4644;48.858;9.184;2023-02-28T08:20:49;-0.60;99.90
9219;DHT22;4644;48.858;9.184;2023-02-28T08:23:18;-0.50;99.90
9219;DHT22;4644;48.858;9.184;2023-02-28T08:25:53;-0.40;99.90
9219;DHT22;4644;48.858;9.184;2023-02-28T08:28:20;-0.50;99.90
9219;DHT22;4644;48.858;9.184;2023-02-28T08:30:47;-0.40;99.90
9219;DHT22;4644;48.858;9.184;2023-02-28T08:33:14;-0.40;99.90
9219;DHT22;4644;48.858;9.184;2023-02-28T08:35:41;-0.40;99.90
9219;DHT22;4644;48.858;9.184;2023-02-28T08:38:08;-0.40;99.90
9219;DHT22;4644;48.858;9.184;2023-02-28T08:40:37;-0.40;99.90
9219;DHT22;4644;48.858;9.184;2023-02-28T08:43:04;-0.30;99.90
9219;DHT22;4644;48.858;9.184;2023-02-28T08:45:31;-0.30;99.90
9219;DHT22;4644;48.858;9.184;2023-02-28T08:47:58;-0.20;99.90
9219;DHT22;4644;48.858;9.184;2023-02-28T08:50:25;-0.20;99.90
9219;DHT22;4644;48.858;9.184;2023-02-28T08:52:52;-0.30;99.90
9219;DHT22;4644;48.858;9.184;2023-02-28T08:55:19;-0.20;99.90
9219;DHT22;4644;48.858;9.184;2023-02-28T08:57:47;-0.10;99.90
9219;DHT22;4644;48.858;9.184;2023-02-28T09:00:15;-0.10;99.90
9219;DHT22;4644;48.858;9.184;2023-02-28T09:02:42;0.00;99.90
9219;DHT22;4644;48.858;9.184;2023-02-28T09:05:09;0.00;99.90
9219;DHT22;4644;48.858;9.184;2023-02-28T09:07:36;0.10;99.90
9219;DHT22;4644;48.858;9.184;2023-02-28T09:10:04;0.10;99.90
9219;DHT22;4644;48.858;9.184;2023-02-28T09:12:33;0.20;99.90
9219;DHT22;4644;48.858;9.184;2023-02-28T09:15:03;0.30;99.90
9219;DHT22;4644;48.858;9.184;2023-02-28T09:17:30;0.40;99.90
9219;DHT22;4644;48.858;9.184;2023-02-28T09:19:57;0.40;99.90
9219;DHT22;4644;48.858;9.184;2023-02-28T09:22:24;0.40;99.90
9219;DHT22;4644;48.858;9.184;2023-02-28T09:24:52;0.60;99.90
9219;DHT22;4644;48.858;9.184;2023-02-28T09:27:19;0.60;99.90
9219;DHT22;4644;48.858;9.184;2023-02-28T09:29:46;0.60;99.90
9219;DHT22;4644;48.858;9.184;2023-02-28T09:32:14;0.70;99.90
9219;DHT22;4644;48.858;9.184;2023-02-28T09:34:41;0.60;99.90
9219;DHT22;4644;48.858;9.184;2023-02-28T09:37:08;0.60;99.90
9219;DHT22;4644;48.858;9.184;2023-02-28T09:39:35;0.60;99.90
9219;DHT22;4644;48.858;9.184;2023-02-28T09:42:03;0.70;99.90
9219;DHT22;4644;48.858;9.184;2023-02-28T09:44:33;0.70;99.90
9219;DHT22;4644;48.858;9.184;2023-02-28T09:47:06;0.90;99.90
9219;DHT22;4644;48.858;9.184;2023-02-28T09:49:39;0.90;99.90
9219;DHT22;4644;48.858;9.184;2023-02-28T09:52:10;1.00;99.90
9219;DHT22;4644;48.858;9.184;2023-02-28T09:54:37;1.00;99.90
9219;DHT22;4644;48.858;9.184;2023-02-28T09:57:08;1.00;99.90
9219;DHT22;4644;48.858;9.184;2023-02-28T09:59:52;1.10;99.90
9219;DHT22;4644;48.858;9.184;2023-02-28T10:02:47;1.10;99.90
9219;DHT22;4644;48.858;9.184;2023-02-28T10:05:22;1.10;99.90
9219;DHT22;4644;48.858;9.184;2023-02-28T10:08:03;1.20;99.90
9219;DHT22;4644;48.858;9.184;2023-02-28T10:10:37;1.20;99.90
9219;DHT22;4644;48.858;9.184;2023-02-28T10:13:12;1.30;99.90
9219;DHT22;4644;48.858;9.184;2023-02-28T10:15:41;1.40;99.90
9219;DHT22;4644;48.858;9.184;2023-02-28T10:18:14;1.50;99.90
9219;DHT22;4644;48.858;9.184;2023-02-28T10:20:45;1.50;99.90
9219;DHT22;4644;48.858;9.184;2023-02-28T10:23:19;1.50;99.90
9219;DHT22;4644;48.858;9.184;2023-02-28T10:25:52;1.50;99.90
9219;DHT22;4644;48.858;9.184;2023-02-28T10:28:20;1.60;99.90
9219;DHT22;4644;48.858;9.184;2023-02-28T10:30:50;1.60;99.90
9219;DHT22;4644;48.858;9.184;2023-02-28T10:33:23;1.80;99.90
9219;DHT22;4644;48.858;9.184;2023-02-28T10:35:52;1.80;99.90
9219;DHT22;4644;48.858;9.184;2023-02-28T10:38:21;1.80;99.90
9219;DHT22;4644;48.858;9.184;2023-02-28T10:40:49;1.80;99.90
9219;DHT22;4644;48.858;9.184;2023-02-28T10:43:21;1.90;99.90
9219;DHT22;4644;48.858;9.184;2023-02-28T10:45:58;2.00;99.90
9219;DHT22;4644;48.858;9.184;2023-02-28T10:48:37;2.10;99.90
9219;DHT22;4644;48.858;9.184;2023-02-28T10:51:08;2.20;99.90
9219;DHT22;4644;48.858;9.184;2023-02-28T10:53:45;2.20;99.90
9219;DHT22;4644;48.858;9.184;2023-02-28T10:56:18;2.30;99.60
9219;DHT22;4644;48.858;9.184;2023-02-28T10:58:50;2.50;99.90
9219;DHT22;4644;48.858;9.184;2023-02-28T11:01:19;2.60;99.80
9219;DHT22;4644;48.858;9.184;2023-02-28T11:03:47;2.90;99.00
9219;DHT22;4644;48.858;9.184;2023-02-28T11:06:18;3.30;99.50
9219;DHT22;4644;48.858;9.184;2023-02-28T11:08:48;3.30;98.20
9219;DHT22;4644;48.858;9.184;2023-02-28T11:11:17;3.50;98.60
9219;DHT22;4644;48.858;9.184;2023-02-28T11:13:45;3.50;98.20
9219;DHT22;4644;48.858;9.184;2023-02-28T11:16:15;3.50;97.20
9219;DHT22;4644;48.858;9.184;2023-02-28T11:18:46;3.40;96.70
9219;DHT22;4644;48.858;9.184;2023-02-28T11:21:23;3.70;97.50
9219;DHT22;4644;48.858;9.184;2023-02-28T11:23:53;4.00;97.00
9219;DHT22;4644;48.858;9.184;2023-02-28T11:26:37;4.10;96.80
9219;DHT22;4644;48.858;9.184;2023-02-28T11:29:12;4.20;97.10
9219;DHT22;4644;48.858;9.184;2023-02-28T11:31:39;4.40;95.40
9219;DHT22;4644;48.858;9.184;2023-02-28T11:34:25;4.70;97.30
9219;DHT22;4644;48.858;9.184;2023-02-28T11:36:56;4.90;96.10
9219;DHT22;4644;48.858;9.184;2023-02-28T11:39:24;5.10;95.10
9219;DHT22;4644;48.858;9.184;2023-02-28T11:42:17;5.30;94.10
9219;DHT22;4644;48.858;9.184;2023-02-28T11:44:59;5.40;95.30
9219;DHT22;4644;48.858;9.184;2023-02-28T11:47:33;5.40;93.90
9219;DHT22;4644;48.858;9.184;2023-02-28T11:53:01;6.30;93.30
9219;DHT22;4644;48.858;9.184;2023-02-28T11:55:35;6.40;92.80
9219;DHT22;4644;48.858;9.184;2023-02-28T11:58:19;6.40;91.30
9219;DHT22;4644;48.858;9.184;2023-02-28T12:01:06;6.50;90.40
9219;DHT22;4644;48.858;9.184;2023-02-28T12:03:44;6.50;92.00
9219;DHT22;4644;48.858;9.184;2023-02-28T12:06:18;6.60;91.10
9219;DHT22;4644;48.858;9.184;2023-02-28T12:09:00;6.70;91.50
9219;DHT22;4644;48.858;9.184;2023-02-28T12:11:37;6.80;89.70
9219;DHT22;4644;48.858;9.184;2023-02-28T12:14:40;6.80;89.70
9219;DHT22;4644;48.858;9.184;2023-02-28T12:17:25;7.10;90.30
9219;DHT22;4644;48.858;9.184;2023-02-28T12:20:02;7.50;86.50
9219;DHT22;4644;48.858;9.184;2023-02-28T12:22:37;7.60;84.90
9219;DHT22;4644;48.858;9.184;2023-02-28T12:25:40;7.80;86.20
9219;DHT22;4644;48.858;9.184;2023-02-28T12:28:12;7.80;86.10
9219;DHT22;4644;48.858;9.184;2023-02-28T12:30:46;7.60;85.60
9219;DHT22;4644;48.858;9.184;2023-02-28T12:33:16;7.20;87.50
9219;DHT22;4644;48.858;9.184;2023-02-28T12:35:49;6.70;86.20
9219;DHT22;4644;48.858;9.184;2023-02-28T12:38:21;6.30;87.40
9219;DHT22;4644;48.858;9.184;2023-02-28T12:40:52;5.90;90.40
9219;DHT22;4644;48.858;9.184;2023-02-28T12:43:22;5.70;90.30
9219;DHT22;4644;48.858;9.184;2023-02-28T12:45:55;5.50;89.00
9219;DHT22;4644;48.858;9.184;2023-02-28T12:48:27;5.40;89.30
9219;DHT22;4644;48.858;9.184;2023-02-28T12:50:56;5.30;89.80
9219;DHT22;4644;48.858;9.184;2023-02-28T12:53:27;5.40;90.60
9219;DHT22;4644;48.858;9.184;2023-02-28T12:56:07;5.30;89.80
9219;DHT22;4644;48.858;9.184;2023-02-28T12:58:38;5.30;90.00
9219;DHT22;4644;48.858;9.184;2023-02-28T13:04:40;5.40;91.00
9219;DHT22;4644;48.858;9.184;2023-02-28T13:07:39;5.40;90.20
9219;DHT22;4644;48.858;9.184;2023-02-28T13:10:10;5.30;90.00
9219;DHT22;4644;48.858;9.184;2023-02-28T13:12:47;5.30;89.50
9219;DHT22;4644;48.858;9.184;2023-02-28T13:15:18;5.40;89.60
9219;DHT22;4644;48.858;9.184;2023-02-28T13:17:50;5.40;90.30
9219;DHT22;4644;48.858;9.184;2023-02-28T13:20:20;5.60;89.70
9219;DHT22;4644;48.858;9.184;2023-02-28T13:22:48;5.70;88.70
9219;DHT22;4644;48.858;9.184;2023-02-28T13:34:39;5.70;87.70
9219;DHT22;4644;48.858;9.184;2023-02-28T13:37:34;5.60;87.90
9219;DHT22;4644;48.858;9.184;2023-02-28T13:40:31;5.70;88.30
9219;DHT22;4644;48.858;9.184;2023-02-28T13:43:02;5.80;88.80
9219;DHT22;4644;48.858;9.184;2023-02-28T13:45:30;5.80;88.30
9219;DHT22;4644;48.858;9.184;2023-02-28T13:48:15;5.70;89.80
9219;DHT22;4644;48.858;9.184;2023-02-28T13:50:43;5.50;87.80
9219;DHT22;4644;48.858;9.184;2023-02-28T13:56:26;5.50;88.40
9219;DHT22;4644;48.858;9.184;2023-02-28T13:58:57;5.60;89.20
9219;DHT22;4644;48.858;9.184;2023-02-28T14:01:46;5.70;88.20
9219;DHT22;4644;48.858;9.184;2023-02-28T14:04:39;5.70;87.50
9219;DHT22;4644;48.858;9.184;2023-02-28T14:07:18;5.70;87.30
9219;DHT22;4644;48.858;9.184;2023-02-28T14:09:51;5.70;88.00
9219;DHT22;4644;48.858;9.184;2023-02-28T14:15:57;5.80;88.40
9219;DHT22;4644;48.858;9.184;2023-02-28T14:18:28;5.80;89.50
9219;DHT22;4644;48.858;9.184;2023-02-28T14:21:02;5.70;87.60
9219;DHT22;4644;48.858;9.184;2023-02-28T14:24:04;5.80;88.90
9219;DHT22;4644;48.858;9.184;2023-02-28T14:30:29;5.90;86.20
9219;DHT22;4644;48.858;9.184;2023-02-28T14:33:22;5.90;86.60
9219;DHT22;4644;48.858;9.184;2023-02-28T14:36:12;5.90;86.70
9219;DHT22;4644;48.858;9.184;2023-02-28T14:38:44;5.80;87.30
9219;DHT22;4644;48.858;9.184;2023-02-28T14:41:21;5.80;89.70
9219;DHT22;4644;48.858;9.184;2023-02-28T14:43:52;5.70;89.00
9219;DHT22;4644;48.858;9.184;2023-02-28T14:46:20;5.70;87.80
9219;DHT22;4644;48.858;9.184;2023-02-28T14:48:48;5.50;88.40
9219;DHT22;4644;48.858;9.184;2023-02-28T14:51:29;5.50;87.90
9219;DHT22;4644;48.858;9.184;2023-02-28T14:54:01;5.40;87.60
9219;DHT22;4644;48.858;9.184;2023-02-28T14:56:34;5.40;89.30
9219;DHT22;4644;48.858;9.184;2023-02-28T14:59:01;5.40;88.80
9219;DHT22;4644;48.858;9.184;2023-02-28T15:01:28;5.50;88.60
9219;DHT22;4644;48.858;9.184;2023-02-28T15:03:58;5.40;88.20
9219;DHT22;4644;48.858;9.184;2023-02-28T15:06:29;5.50;89.00
9219;DHT22;4644;48.858;9.184;2023-02-28T15:09:13;5.50;88.70
9219;DHT22;4644;48.858;9.184;2023-02-28T15:11:41;5.50;88.00
9219;DHT22;4644;48.858;9.184;2023-02-28T15:14:16;5.50;88.60
9219;DHT22;4644;48.858;9.184;2023-02-28T15:16:47;5.50;87.90
9219;DHT22;4644;48.858;9.184;2023-02-28T15:19:21;5.50;88.80
9219;DHT22;4644;48.858;9.184;2023-02-28T15:21:54;5.50;88.50
9219;DHT22;4644;48.858;9.184;2023-02-28T15:24:35;5.50;88.20
9219;DHT22;4644;48.858;9.184;2023-02-28T15:27:04;5.40;89.20
9219;DHT22;4644;48.858;9.184;2023-02-28T15:29:37;5.40;88.80
9219;DHT22;4644;48.858;9.184;2023-02-28T15:32:25;5.40;88.60
9219;DHT22;4644;48.858;9.184;2023-02-28T15:34:53;5.30;89.70
9219;DHT22;4644;48.858;9.184;2023-02-28T15:37:38;5.20;89.60
9219;DHT22;4644;48.858;9.184;2023-02-28T15:40:12;5.20;90.70
9219;DHT22;4644;48.858;9.184;2023-02-28T15:42:39;5.10;90.30
9219;DHT22;4644;48.858;9.184;2023-02-28T15:45:27;5.10;89.80
9219;DHT22;4644;48.858;9.184;2023-02-28T15:47:55;5.10;90.10
9219;DHT22;4644;48.858;9.184;2023-02-28T15:50:22;5.10;90.10
9219;DHT22;4644;48.858;9.184;2023-02-28T15:52:51;5.10;90.30
9219;DHT22;4644;48.858;9.184;2023-02-28T15:55:20;5.00;90.50
9219;DHT22;4644;48.858;9.184;2023-02-28T15:57:50;5.00;90.30
9219;DHT22;4644;48.858;9.184;2023-02-28T16:00:21;5.00;90.80
9219;DHT22;4644;48.858;9.184;2023-02-28T16:02:48;5.00;90.30
9219;DHT22;4644;48.858;9.184;2023-02-28T16:05:22;5.00;90.40
9219;DHT22;4644;48.858;9.184;2023-02-28T16:07:55;4.90;91.30
9219;DHT22;4644;48.858;9.184;2023-02-28T16:10:24;4.80;91.00
9219;DHT22;4644;48.858;9.184;2023-02-28T16:12:53;4.80;90.80
9219;DHT22;4644;48.858;9.184;2023-02-28T16:15:23;4.80;91.40
9219;DHT22;4644;48.858;9.184;2023-02-28T16:17:52;4.80;91.10
9219;DHT22;4644;48.858;9.184;2023-02-28T16:20:22;4.70;91.40
9219;DHT22;4644;48.858;9.184;2023-02-28T16:22:49;4.70;91.20
9219;DHT22;4644;48.858;9.184;2023-02-28T16:25:20;4.60;90.90
9219;DHT22;4644;48.858;9.184;2023-02-28T16:27:50;4.60;91.40
9219;DHT22;4644;48.858;9.184;2023-02-28T16:30:22;4.50;91.30
9219;DHT22;4644;48.858;9.184;2023-02-28T16:32:50;4.40;91.30
9219;DHT22;4644;48.858;9.184;2023-02-28T16:35:17;4.40;91.50
9219;DHT22;4644;48.858;9.184;2023-02-28T16:37:44;4.30;91.90
9219;DHT22;4644;48.858;9.184;2023-02-28T16:40:14;4.30;91.70
9219;DHT22;4644;48.858;9.184;2023-02-28T16:42:43;4.20;92.10
9219;DHT22;4644;48.858;9.184;2023-02-28T16:45:17;4.10;92.70
9219;DHT22;4644;48.858;9.184;2023-02-28T16:47:45;4.10;92.40
9219;DHT22;4644;48.858;9.184;2023-02-28T16:50:16;4.10;92.40
9219;DHT22;4644;48.858;9.184;2023-02-28T16:52:43;4.00;92.80
9219;DHT22;4644;48.858;9.184;2023-02-28T16:55:11;3.90;92.80
9219;DHT22;4644;48.858;9.184;2023-02-28T16:57:38;3.80;93.00
9219;DHT22;4644;48.858;9.184;2023-02-28T17:00:10;3.70;93.10
9219;DHT22;4644;48.858;9.184;2023-02-28T17:02:38;3.70;93.00
9219;DHT22;4644;48.858;9.184;2023-02-28T17:05:05;3.60;93.20